Time;durP1;ratioP1;P1;durP2;ratioP2;P2;SDS_P1;SDS_P2;PMS_P1;PMS_P2;Temp;Humidity;BMP_temperature;BMP_pressure;BME280_temperature;BME280_humidity;BME280_pressure;Samples;Min_cycle;Max_cycle;Signal;HPM_P1;HPM_P2
2021/11/04 00:01:06;;;;;;;57.83;3.00;;;7.70;34.20;;;;;;5132204;27;20319;-65
2021/11/04 00:03:33;;;;;;;57.87;2.80;;;7.70;34.20;;;;;;5132391;27;20534;-64
2021/11/04 00:06:00;;;;;;;58.20;2.80;;;7.70;34.20;;;;;;5131577;27;20489;-65
2021/11/04 00:08:27;;;;;;;57.90;2.67;;;7.70;34.00;;;;;;5131995;27;20220;-64
2021/11/04 00:10:54;;;;;;;58.07;3.10;;;7.70;34.00;;;;;;5133112;27;20503;-65
2021/11/04 00:13:23;;;;;;;58.03;2.70;;;7.70;33.40;;;;;;5131798;27;20446;-65
2021/11/04 00:15:50;;;;;;;58.17;2.80;;;7.70;33.10;;;;;;5131364;27;20453;-64
2021/11/04 00:18:18;;;;;;;58.10;2.70;;;7.70;33.00;;;;;;5132560;27;20535;-65
2021/11/04 00:20:45;;;;;;;58.63;3.63;;;7.70;32.90;;;;;;5132142;27;20225;-65
2021/11/04 00:23:11;;;;;;;58.20;2.97;;;7.70;32.80;;;;;;5131901;27;20211;-65
2021/11/04 00:25:40;;;;;;;58.17;2.58;;;7.70;32.90;;;;;;5132428;27;20586;-65
2021/11/04 00:28:07;;;;;;;58.30;2.80;;;7.70;32.70;;;;;;5132621;27;20229;-65
2021/11/04 00:30:35;;;;;;;58.60;4.40;;;7.70;32.50;;;;;;5131884;27;20314;-65
2021/11/04 00:33:02;;;;;;;58.05;2.60;;;7.70;32.30;;;;;;5131172;27;20450;-64
2021/11/04 00:35:29;;;;;;;57.78;2.60;;;7.70;32.90;;;;;;5131144;27;20242;-64
2021/11/04 00:37:56;;;;;;;58.10;2.72;;;7.70;31.80;;;;;;5131614;27;20228;-64
2021/11/04 00:40:24;;;;;;;58.60;3.15;;;7.70;31.10;;;;;;5131722;27;20263;-65
2021/11/04 00:42:51;;;;;;;58.95;4.25;;;7.70;30.50;;;;;;5130941;27;20204;-65
2021/11/04 00:45:18;;;;;;;57.88;2.70;;;7.60;30.00;;;;;;5131114;27;20215;-65
2021/11/04 00:47:46;;;;;;;59.63;3.13;;;7.60;29.70;;;;;;5132198;27;20322;-65
2021/11/04 00:50:13;;;;;;;60.97;3.67;;;7.60;30.00;;;;;;5132541;27;20466;-64
2021/11/04 00:52:40;;;;;;;58.03;2.70;;;7.60;29.40;;;;;;5132560;27;20537;-64
2021/11/04 00:55:09;;;;;;;58.03;2.75;;;7.60;29.90;;;;;;5131963;27;20535;-65
2021/11/04 00:57:37;;;;;;;58.90;2.80;;;7.60;29.80;;;;;;5131220;27;20206;-65
2021/11/04 01:00:06;;;;;;;60.07;3.67;;;7.60;29.50;;;;;;5131473;27;20466;-65
2021/11/04 01:02:33;;;;;;;57.97;3.00;;;7.60;30.00;;;;;;5131083;27;20537;-65
2021/11/04 01:05:02;;;;;;;57.90;2.80;;;7.70;30.10;;;;;;5131805;27;20533;-65
2021/11/04 01:07:28;;;;;;;58.08;2.70;;;7.70;30.10;;;;;;5130437;27;20531;-65
2021/11/04 01:09:55;;;;;;;57.92;2.60;;;7.70;30.00;;;;;;5130731;27;20219;-65
2021/11/04 01:12:22;;;;;;;59.05;3.00;;;7.70;29.90;;;;;;5131937;27;20209;-65
2021/11/04 01:14:49;;;;;;;57.95;2.70;;;7.70;30.00;;;;;;5131540;27;20210;-65
2021/11/04 01:17:16;;;;;;;57.97;2.60;;;7.60;29.80;;;;;;5130793;27;20735;-65
2021/11/04 01:19:43;;;;;;;57.87;2.70;;;7.70;30.50;;;;;;5131757;27;20246;-64
2021/11/04 01:22:12;;;;;;;58.25;2.90;;;7.70;30.60;;;;;;5130538;27;20532;-65
2021/11/04 01:24:38;;;;;;;58.10;2.72;;;7.70;30.50;;;;;;5130166;27;20295;-64
2021/11/04 01:27:06;;;;;;;57.97;2.70;;;7.70;30.40;;;;;;5130532;27;20228;-65
2021/11/04 01:29:32;;;;;;;58.30;3.27;;;7.70;30.20;;;;;;5131175;27;20730;-65
2021/11/04 01:31:59;;;;;;;58.07;2.60;;;7.70;30.20;;;;;;5130703;27;20458;-65
2021/11/04 01:34:26;;;;;;;58.10;2.80;;;7.60;30.20;;;;;;5130778;27;20457;-64
2021/11/04 01:36:53;;;;;;;58.42;3.10;;;7.60;30.00;;;;;;5130775;27;20533;-66
2021/11/04 01:39:21;;;;;;;58.07;3.00;;;7.60;30.20;;;;;;5130490;27;20700;-66
2021/11/04 01:41:48;;;;;;;58.27;3.17;;;7.60;29.90;;;;;;5130150;27;20809;-65
2021/11/04 01:44:15;;;;;;;58.08;2.70;;;7.60;30.00;;;;;;5131431;27;20844;-66
2021/11/04 01:46:43;;;;;;;57.97;2.70;;;7.60;29.80;;;;;;5130669;27;20214;-66
2021/11/04 01:49:10;;;;;;;58.37;3.00;;;7.60;29.60;;;;;;5130978;27;20764;-66
2021/11/04 01:51:37;;;;;;;57.95;2.90;;;7.60;29.90;;;;;;5131700;27;20832;-66
2021/11/04 01:54:04;;;;;;;58.70;3.40;;;7.50;29.00;;;;;;5130479;27;20296;-66
2021/11/04 01:56:37;;;;;;;57.93;2.60;;;7.50;28.20;;;;;;5133633;27;20535;-66
2021/11/04 01:59:04;;;;;;;58.10;2.60;;;7.50;26.50;;;;;;5134117;27;20446;-66
2021/11/04 02:01:30;;;;;;;57.90;2.47;;;7.50;25.10;;;;;;5133459;27;20565;-66
2021/11/04 02:04:04;;;;;;;58.03;2.60;;;7.40;23.20;;;;;;5133500;27;20776;-66
2021/11/04 02:06:37;;;;;;;57.87;2.60;;;7.40;21.40;;;;;;5133192;27;20909;-66
2021/11/04 02:09:07;;;;;;;58.05;2.63;;;7.40;19.00;;;;;;5134903;27;20480;-65
2021/11/04 02:11:39;;;;;;;57.83;2.50;;;7.30;18.20;;;;;;5134315;27;20228;-65
2021/11/04 02:14:11;;;;;;;58.10;2.60;;;7.30;17.40;;;;;;5133579;27;20447;-65
2021/11/04 02:16:39;;;;;;;57.97;2.40;;;7.30;17.10;;;;;;5134556;27;20446;-65
2021/11/04 02:19:19;;;;;;;58.00;2.70;;;7.30;15.70;;;;;;5134410;27;20484;-65
2021/11/04 02:21:55;;;;;;;58.05;2.55;;;7.10;7.90;;;;;;5134028;27;20228;-65
2021/11/04 02:24:29;;;;;;;58.08;2.58;;;7.00;4.20;;;;;;5134628;27;20667;-65
2021/11/04 02:26:59;;;;;;;58.10;2.60;;;7.00;1.00;;;;;;5133895;27;20706;-65
2021/11/04 02:29:27;;;;;;;58.10;2.60;;;6.90;1.00;;;;;;5134650;27;20334;-65
2021/11/04 02:31:54;;;;;;;62.33;3.47;;;6.80;1.00;;;;;;5134860;27;20301;-65
2021/11/04 02:34:23;;;;;;;58.33;2.92;;;6.70;1.00;;;;;;5134203;27;20778;-65
2021/11/04 02:36:51;;;;;;;58.40;2.72;;;6.70;1.00;;;;;;5133420;27;20252;-65
2021/11/04 02:39:18;;;;;;;58.17;2.70;;;6.70;1.00;;;;;;5133639;27;20601;-65
2021/11/04 02:41:45;;;;;;;57.97;2.80;;;6.60;1.00;;;;;;5134062;27;20306;-65
2021/11/04 02:44:14;;;;;;;58.20;2.90;;;6.60;1.00;;;;;;5134239;27;20587;-65
2021/11/04 02:46:41;;;;;;;58.25;2.80;;;6.50;1.00;;;;;;5133698;27;20294;-65
2021/11/04 02:49:09;;;;;;;58.20;2.70;;;6.50;1.00;;;;;;5134353;27;20314;-65
2021/11/04 02:51:38;;;;;;;58.25;2.70;;;6.50;1.00;;;;;;5134290;27;20322;-65
2021/11/04 02:54:07;;;;;;;58.17;3.00;;;6.40;1.00;;;;;;5133520;27;20213;-65
2021/11/04 02:56:42;;;;;;;58.17;2.60;;;6.40;1.00;;;;;;5134205;27;20203;-65
2021/11/04 02:59:10;;;;;;;58.17;2.58;;;6.40;1.00;;;;;;5133998;27;20289;-65
2021/11/04 03:01:40;;;;;;;58.20;2.65;;;6.40;1.00;;;;;;5132723;27;20662;-65
2021/11/04 03:04:07;;;;;;;58.30;2.80;;;6.30;1.00;;;;;;5133724;27;20209;-65
2021/11/04 03:06:34;;;;;;;58.17;2.70;;;6.30;1.00;;;;;;5132841;27;20207;-65
2021/11/04 03:09:01;;;;;;;58.17;2.67;;;6.30;1.00;;;;;;5134046;27;20310;-65
2021/11/04 03:11:28;;;;;;;58.15;2.78;;;6.20;1.00;;;;;;5132858;27;20310;-65
2021/11/04 03:13:55;;;;;;;58.50;2.78;;;6.20;1.00;;;;;;5133302;27;20582;-65
2021/11/04 03:16:23;;;;;;;58.40;2.80;;;6.20;1.00;;;;;;5133468;27;20713;-65
2021/11/04 03:18:54;;;;;;;58.28;2.75;;;6.20;1.00;;;;;;5133655;27;20290;-65
2021/11/04 03:21:21;;;;;;;58.25;2.70;;;6.10;1.00;;;;;;5133597;27;20223;-65
2021/11/04 03:23:48;;;;;;;58.38;2.90;;;6.10;1.00;;;;;;5132627;27;20245;-65
2021/11/04 03:26:16;;;;;;;58.38;2.65;;;6.10;1.00;;;;;;5132492;27;20245;-65
2021/11/04 03:28:43;;;;;;;58.38;2.70;;;6.10;1.00;;;;;;5134165;27;20223;-65
2021/11/04 03:31:12;;;;;;;58.30;2.70;;;6.10;1.00;;;;;;5133445;27;20678;-65
2021/11/04 03:33:41;;;;;;;58.42;2.80;;;6.00;1.00;;;;;;5133138;27;21061;-65
2021/11/04 03:36:10;;;;;;;58.30;2.95;;;6.00;1.00;;;;;;5132830;27;20202;-65
2021/11/04 03:38:37;;;;;;;58.25;2.80;;;6.00;1.00;;;;;;5132445;27;20290;-65
2021/11/04 03:41:06;;;;;;;58.35;3.00;;;6.00;1.00;;;;;;5132081;27;20721;-65
2021/11/04 03:43:34;;;;;;;58.28;2.70;;;6.00;1.00;;;;;;5132863;27;20205;-65
2021/11/04 03:46:01;;;;;;;58.38;2.85;;;6.00;1.00;;;;;;5132168;27;20307;-65
2021/11/04 03:48:28;;;;;;;58.28;2.70;;;6.00;1.00;;;;;;5132090;27;20309;-65
2021/11/04 03:50:57;;;;;;;58.20;2.90;;;6.00;1.00;;;;;;5133632;27;20660;-65
2021/11/04 03:53:25;;;;;;;58.17;2.90;;;6.00;1.00;;;;;;5132122;27;20223;-65
2021/11/04 03:55:52;;;;;;;58.28;2.75;;;5.90;1.00;;;;;;5132297;27;20199;-65
2021/11/04 03:58:20;;;;;;;58.08;2.85;;;5.90;1.00;;;;;;5132097;27;20286;-65
2021/11/04 04:00:47;;;;;;;58.25;2.90;;;5.90;1.00;;;;;;5133045;27;20233;-65
2021/11/04 04:03:14;;;;;;;58.05;2.80;;;6.00;1.00;;;;;;5132147;27;20199;-65
2021/11/04 04:05:41;;;;;;;58.30;2.97;;;6.00;1.00;;;;;;5132078;27;20199;-65
2021/11/04 04:08:07;;;;;;;57.95;2.65;;;6.00;1.00;;;;;;5132589;27;20397;-65
2021/11/04 04:10:36;;;;;;;58.20;2.72;;;6.00;1.00;;;;;;5132577;27;20230;-65
2021/11/04 04:13:03;;;;;;;58.55;3.00;;;6.00;1.00;;;;;;5132010;27;20299;-65
2021/11/04 04:15:30;;;;;;;58.30;2.70;;;6.00;1.00;;;;;;5131369;27;20297;-65
2021/11/04 04:17:57;;;;;;;58.30;2.70;;;6.10;9.10;;;;;;5130925;27;20206;-65
2021/11/04 04:20:25;;;;;;;58.28;2.80;;;6.10;9.20;;;;;;5132835;27;20255;-65
2021/11/04 04:22:51;;;;;;;58.20;2.80;;;6.10;1.90;;;;;;5132794;27;20264;-65
2021/11/04 04:25:18;;;;;;;58.15;2.83;;;6.10;2.40;;;;;;5132285;27;20213;-65
2021/11/04 04:27:46;;;;;;;58.30;3.00;;;6.10;2.40;;;;;;5132086;27;20663;-65
2021/11/04 04:30:13;;;;;;;58.08;2.60;;;6.10;2.40;;;;;;5131949;27;20774;-65
2021/11/04 04:32:40;;;;;;;58.00;2.63;;;6.10;13.70;;;;;;5131567;27;20290;-65
2021/11/04 04:35:07;;;;;;;58.08;2.67;;;6.10;2.40;;;;;;5131548;27;20255;-65
2021/11/04 04:37:34;;;;;;;58.28;2.80;;;6.10;2.40;;;;;;5131661;27;20315;-65
2021/11/04 04:40:02;;;;;;;58.15;2.72;;;6.10;2.90;;;;;;5131625;27;20572;-65
2021/11/04 04:42:29;;;;;;;58.17;2.60;;;6.10;2.30;;;;;;5132271;27;20298;-65
2021/11/04 04:44:57;;;;;;;58.30;2.90;;;6.10;2.30;;;;;;5131738;27;20436;-65
2021/11/04 04:47:25;;;;;;;58.30;2.60;;;6.10;2.40;;;;;;5131240;27;20211;-65
2021/11/04 04:49:58;;;;;;;58.38;2.72;;;6.10;2.30;;;;;;5131248;27;20227;-65
2021/11/04 04:52:25;;;;;;;58.10;2.70;;;6.10;2.70;;;;;;5131704;27;20203;-65
2021/11/04 04:54:52;;;;;;;58.30;3.35;;;6.10;2.90;;;;;;5130686;27;20206;-65
2021/11/04 04:57:22;;;;;;;58.15;2.60;;;6.10;3.10;;;;;;5131662;27;20215;-65
2021/11/04 04:59:50;;;;;;;58.05;2.45;;;6.10;3.20;;;;;;5132250;27;20222;-65
2021/11/04 05:02:18;;;;;;;58.30;2.60;;;6.10;3.10;;;;;;5132469;27;20592;-65
2021/11/04 05:04:45;;;;;;;58.30;2.70;;;6.10;2.90;;;;;;5130899;27;20208;-65
2021/11/04 05:07:12;;;;;;;58.15;2.70;;;6.10;3.10;;;;;;5131871;27;20207;-65
2021/11/04 05:09:39;;;;;;;58.10;2.70;;;6.10;2.80;;;;;;5130900;27;20583;-65
2021/11/04 05:12:06;;;;;;;58.08;2.53;;;6.10;2.50;;;;;;5131786;27;20214;-65
2021/11/04 05:14:33;;;;;;;58.25;2.90;;;6.10;2.80;;;;;;5132174;27;20202;-65
2021/11/04 05:17:00;;;;;;;58.28;2.80;;;6.10;2.80;;;;;;5131922;27;20235;-65
2021/11/04 05:19:28;;;;;;;58.28;2.95;;;6.10;2.70;;;;;;5131105;27;20209;-65
2021/11/04 05:21:55;;;;;;;58.40;2.90;;;6.10;3.20;;;;;;5132082;27;20204;-65
2021/11/04 05:24:23;;;;;;;58.17;2.55;;;6.10;3.00;;;;;;5132062;27;20306;-65
2021/11/04 05:26:50;;;;;;;58.35;2.78;;;6.10;3.10;;;;;;5131453;27;20585;-65
2021/11/04 05:29:18;;;;;;;58.08;2.70;;;6.10;3.10;;;;;;5133974;27;20732;-65
2021/11/04 05:31:45;;;;;;;57.90;2.80;;;6.10;3.30;;;;;;5136454;27;20223;-65
2021/11/04 05:34:12;;;;;;;58.20;2.80;;;6.10;3.40;;;;;;5135615;27;20257;-65
2021/11/04 05:36:40;;;;;;;58.40;2.90;;;6.10;3.50;;;;;;5135376;27;20291;-65
2021/11/04 05:39:07;;;;;;;58.17;2.70;;;6.10;3.70;;;;;;5135431;27;20393;-65
2021/11/04 05:41:34;;;;;;;58.38;2.70;;;6.10;3.80;;;;;;5134813;27;20314;-65
2021/11/04 05:44:01;;;;;;;57.97;2.60;;;6.10;3.90;;;;;;5134611;27;20205;-65
2021/11/04 05:46:28;;;;;;;58.50;2.85;;;6.10;3.90;;;;;;5135067;27;20690;-65
2021/11/04 05:48:54;;;;;;;58.08;2.60;;;6.10;4.00;;;;;;5134295;27;20229;-65
2021/11/04 05:51:21;;;;;;;58.10;2.70;;;6.10;3.90;;;;;;5134265;27;20313;-65
2021/11/04 05:53:50;;;;;;;58.08;2.60;;;6.10;3.90;;;;;;5135228;27;20209;-65
2021/11/04 05:56:16;;;;;;;58.17;2.58;;;6.10;4.30;;;;;;5135133;27;20299;-65
2021/11/04 05:58:43;;;;;;;58.08;2.58;;;6.10;3.60;;;;;;5134569;27;20203;-65
2021/11/04 06:01:10;;;;;;;58.08;2.65;;;6.10;3.40;;;;;;5134304;27;20219;-65
2021/11/04 06:03:37;;;;;;;58.08;2.67;;;6.20;3.10;;;;;;5135100;27;20648;-65
2021/11/04 06:06:04;;;;;;;58.17;2.80;;;6.20;3.20;;;;;;5134280;27;20238;-65
2021/11/04 06:08:31;;;;;;;58.17;2.58;;;6.20;3.20;;;;;;5134353;27;20310;-65
2021/11/04 06:10:59;;;;;;;58.17;2.58;;;6.20;3.50;;;;;;5135428;27;20317;-65
2021/11/04 06:13:26;;;;;;;58.17;2.58;;;6.20;3.90;;;;;;5134792;27;20206;-66
2021/11/04 06:15:53;;;;;;;58.17;2.60;;;6.20;4.40;;;;;;5133915;27;20226;-65
2021/11/04 06:18:19;;;;;;;58.30;2.65;;;6.20;3.90;;;;;;5134671;27;20210;-65
2021/11/04 06:20:46;;;;;;;58.00;2.63;;;6.30;4.20;;;;;;5134595;27;20333;-65
2021/11/04 06:23:13;;;;;;;58.15;2.60;;;6.30;4.10;;;;;;5134792;27;20913;-65
2021/11/04 06:25:40;;;;;;;58.28;2.60;;;6.30;3.80;;;;;;5134851;27;20202;-65
2021/11/04 06:28:08;;;;;;;58.28;2.70;;;6.30;3.70;;;;;;5134253;27;20301;-65
2021/11/04 06:30:35;;;;;;;58.20;2.58;;;6.30;4.00;;;;;;5133327;27;20703;-65
2021/11/04 06:33:02;;;;;;;58.17;2.75;;;6.30;3.60;;;;;;5133953;27;20207;-65
2021/11/04 06:35:29;;;;;;;58.42;2.83;;;6.30;3.80;;;;;;5133920;27;20211;-65
2021/11/04 06:37:56;;;;;;;58.15;2.65;;;6.30;3.80;;;;;;5134098;27;20209;-65
2021/11/04 06:40:26;;;;;;;57.85;2.60;;;6.40;3.50;;;;;;5133089;27;20223;-65
2021/11/04 06:42:54;;;;;;;58.05;2.50;;;6.40;3.30;;;;;;5134138;27;20211;-65
2021/11/04 06:45:22;;;;;;;58.08;2.60;;;6.40;3.60;;;;;;5133196;27;20293;-66
2021/11/04 06:47:52;;;;;;;57.97;2.60;;;6.40;3.60;;;;;;5134849;27;20577;-66
2021/11/04 06:50:24;;;;;;;58.30;2.70;;;6.50;3.70;;;;;;5133344;27;20714;-66
2021/11/04 06:52:56;;;;;;;57.88;2.80;;;6.50;3.70;;;;;;5133654;27;20585;-66
2021/11/04 06:55:27;;;;;;;58.00;2.70;;;6.50;3.60;;;;;;5133379;27;20289;-66
2021/11/04 06:58:00;;;;;;;58.05;2.67;;;6.50;3.30;;;;;;5133591;27;20199;-66
2021/11/04 07:00:31;;;;;;;58.50;3.20;;;6.50;3.30;;;;;;5133205;27;20654;-66
2021/11/04 07:03:08;;;;;;;58.05;2.70;;;6.50;3.40;;;;;;5133931;27;20314;-65
2021/11/04 07:05:35;;;;;;;58.10;2.55;;;6.50;3.60;;;;;;5133579;27;20207;-65
2021/11/04 07:08:04;;;;;;;58.08;2.70;;;6.50;3.90;;;;;;5133762;27;20242;-65
2021/11/04 07:10:31;;;;;;;58.20;2.80;;;6.50;4.00;;;;;;5132749;27;20283;-65
2021/11/04 07:12:58;;;;;;;58.05;2.70;;;6.50;4.10;;;;;;5133837;27;20536;-66
2021/11/04 07:15:25;;;;;;;58.20;2.78;;;6.60;4.10;;;;;;5133772;27;20207;-65
2021/11/04 07:17:54;;;;;;;58.15;2.70;;;6.60;3.60;;;;;;5133213;27;20240;-65
2021/11/04 07:20:21;;;;;;;58.50;2.90;;;6.60;3.70;;;;;;5133219;27;20239;-65
2021/11/04 07:22:51;;;;;;;58.15;2.72;;;6.60;3.00;;;;;;5134782;27;20234;-66
2021/11/04 07:25:19;;;;;;;58.30;2.70;;;6.60;2.20;;;;;;5133884;27;20555;-65
2021/11/04 07:27:54;;;;;;;58.08;2.85;;;6.60;1.00;;;;;;5133568;27;20701;-66
2021/11/04 07:30:23;;;;;;;58.17;3.00;;;6.60;1.00;;;;;;5132888;27;20352;-66
2021/11/04 07:32:51;;;;;;;58.05;2.88;;;6.60;1.00;;;;;;5134412;27;20211;-66
2021/11/04 07:35:23;;;;;;;58.08;2.75;;;6.60;1.00;;;;;;5133744;27;20219;-66
2021/11/04 07:37:50;;;;;;;58.08;2.70;;;6.50;1.00;;;;;;5134095;27;20207;-66
2021/11/04 07:40:19;;;;;;;57.95;2.75;;;6.50;1.00;;;;;;5133893;27;20306;-66
2021/11/04 07:42:47;;;;;;;58.10;2.90;;;6.50;1.00;;;;;;5133890;27;20255;-65
2021/11/04 07:45:14;;;;;;;58.08;2.60;;;6.60;1.00;;;;;;5133668;27;20294;-66
2021/11/04 07:47:43;;;;;;;58.20;2.70;;;6.70;1.00;;;;;;5133365;27;20246;-66
2021/11/04 07:50:11;;;;;;;57.97;2.70;;;6.70;1.00;;;;;;5131249;27;20288;-66
2021/11/04 07:52:41;;;;;;;57.90;2.60;;;6.70;1.00;;;;;;5132461;27;20610;-66
2021/11/04 07:55:11;;;;;;;58.28;2.72;;;6.70;1.00;;;;;;5132306;27;20205;-66
2021/11/04 07:57:39;;;;;;;58.10;2.80;;;6.70;1.00;;;;;;5132362;27;20225;-66
2021/11/04 08:00:08;;;;;;;58.40;2.80;;;6.70;1.00;;;;;;5132537;27;20234;-67
2021/11/04 08:02:35;;;;;;;58.08;2.65;;;6.70;1.00;;;;;;5133081;27;20634;-66
2021/11/04 08:05:03;;;;;;;58.28;2.80;;;6.80;1.00;;;;;;5132679;27;20248;-66
2021/11/04 08:07:33;;;;;;;58.10;2.70;;;6.80;1.00;;;;;;5132452;27;20213;-66
2021/11/04 08:10:01;;;;;;;58.40;3.13;;;6.90;1.00;;;;;;5132558;27;20235;-67
2021/11/04 08:12:28;;;;;;;58.20;2.67;;;6.90;1.00;;;;;;5132400;27;20206;-65
2021/11/04 08:14:55;;;;;;;58.08;2.70;;;6.90;1.00;;;;;;5132555;27;20574;-66
2021/11/04 08:17:22;;;;;;;58.17;2.75;;;6.90;1.00;;;;;;5132782;27;20217;-65
2021/11/04 08:19:49;;;;;;;57.97;2.60;;;6.90;1.00;;;;;;5132797;27;20309;-66
2021/11/04 08:22:16;;;;;;;58.08;2.72;;;6.90;1.00;;;;;;5133028;27;20213;-66
2021/11/04 08:24:44;;;;;;;57.85;2.72;;;6.90;1.00;;;;;;5132764;27;20206;-66
2021/11/04 08:27:12;;;;;;;57.78;2.60;;;6.90;1.00;;;;;;5132647;27;20207;-64
2021/11/04 08:29:39;;;;;;;58.03;2.42;;;6.90;1.00;;;;;;5132532;27;20609;-65
2021/11/04 08:32:08;;;;;;;57.80;2.65;;;6.80;1.00;;;;;;5132983;27;20642;-68
2021/11/04 08:34:35;;;;;;;58.17;2.78;;;6.90;1.00;;;;;;5132624;27;20210;-65
2021/11/04 08:37:03;;;;;;;58.20;2.70;;;6.80;1.00;;;;;;5132251;27;20299;-66
2021/11/04 08:39:30;;;;;;;57.95;2.70;;;6.90;1.00;;;;;;5132900;27;20272;-65
2021/11/04 08:41:57;;;;;;;58.10;2.80;;;6.90;1.00;;;;;;5132680;27;20299;-65
2021/11/04 08:44:26;;;;;;;58.17;2.70;;;7.00;1.00;;;;;;5130832;27;20242;-65
2021/11/04 08:46:54;;;;;;;57.88;2.50;;;7.00;1.00;;;;;;5132416;27;20628;-66
2021/11/04 08:49:20;;;;;;;58.08;2.78;;;7.00;1.00;;;;;;5132731;27;20204;-66
2021/11/04 08:51:48;;;;;;;58.17;2.88;;;7.00;1.00;;;;;;5132549;27;20222;-66
2021/11/04 08:54:15;;;;;;;58.15;2.60;;;7.00;1.00;;;;;;5132651;27;20245;-65
2021/11/04 08:56:42;;;;;;;58.20;2.70;;;7.00;1.00;;;;;;5131675;27;20207;-66
2021/11/04 08:59:09;;;;;;;57.95;2.70;;;7.00;1.00;;;;;;5132697;27;20199;-66
2021/11/04 09:01:38;;;;;;;57.97;2.60;;;7.00;1.00;;;;;;5132407;27;20223;-66
2021/11/04 09:04:05;;;;;;;57.97;2.72;;;7.00;1.00;;;;;;5133574;27;20579;-66
2021/11/04 09:06:32;;;;;;;58.10;2.70;;;7.00;1.00;;;;;;5136114;27;20286;-66
2021/11/04 09:09:01;;;;;;;58.30;2.80;;;6.90;1.00;;;;;;5136605;27;20207;-67
2021/11/04 09:11:28;;;;;;;58.17;2.88;;;6.90;1.00;;;;;;5136815;27;20238;-67
2021/11/04 09:13:55;;;;;;;57.78;2.50;;;6.90;1.00;;;;;;5136518;27;20211;-67
2021/11/04 09:16:22;;;;;;;58.08;2.72;;;6.90;1.00;;;;;;5136241;27;20207;-67
2021/11/04 09:18:50;;;;;;;58.08;2.88;;;6.90;1.00;;;;;;5134466;27;20199;-66
2021/11/04 09:21:17;;;;;;;58.25;2.85;;;6.90;1.00;;;;;;5136475;27;20223;-67
2021/11/04 09:23:44;;;;;;;58.08;2.80;;;6.90;1.00;;;;;;5136057;27;20297;-67
2021/11/04 09:26:11;;;;;;;58.20;2.72;;;7.00;1.00;;;;;;5135798;27;20293;-67
2021/11/04 09:28:38;;;;;;;58.25;2.70;;;7.00;1.00;;;;;;5136234;27;20296;-67
2021/11/04 09:31:07;;;;;;;58.08;2.70;;;7.00;1.00;;;;;;5135779;27;20276;-67
2021/11/04 09:33:34;;;;;;;58.28;2.75;;;7.00;1.00;;;;;;5135664;27;20211;-67
2021/11/04 09:36:03;;;;;;;58.17;2.70;;;7.00;1.00;;;;;;5135904;27;20234;-66
2021/11/04 09:38:29;;;;;;;58.08;2.70;;;7.00;1.00;;;;;;5135681;27;20570;-67
2021/11/04 09:40:56;;;;;;;58.75;2.90;;;7.10;1.00;;;;;;5136009;27;20219;-67
2021/11/04 09:43:24;;;;;;;58.10;2.72;;;7.20;1.00;;;;;;5136361;27;20298;-67
2021/11/04 09:45:51;;;;;;;58.05;2.60;;;7.20;1.00;;;;;;5135673;27;20298;-67
2021/11/04 09:48:18;;;;;;;57.95;2.70;;;7.30;1.00;;;;;;5135691;27;20294;-68
2021/11/04 09:50:45;;;;;;;58.00;2.60;;;7.40;1.00;;;;;;5135492;27;20268;-66
2021/11/04 09:53:13;;;;;;;58.30;2.70;;;7.40;1.00;;;;;;5135621;27;20451;-67
2021/11/04 09:55:40;;;;;;;58.28;2.70;;;7.50;1.00;;;;;;5135562;27;20213;-69
2021/11/04 09:58:07;;;;;;;58.10;2.70;;;7.50;1.00;;;;;;5135663;27;20294;-67
2021/11/04 10:00:36;;;;;;;57.97;2.65;;;7.50;1.00;;;;;;5133859;27;20223;-67
2021/11/04 10:03:06;;;;;;;57.97;2.60;;;7.50;1.00;;;;;;5135655;27;20267;-67
2021/11/04 10:05:41;;;;;;;58.08;2.55;;;7.40;1.00;;;;;;5135109;27;20676;-67
2021/11/04 10:08:09;;;;;;;57.97;2.70;;;7.30;1.00;;;;;;5135591;27;20213;-67
2021/11/04 10:10:37;;;;;;;58.28;2.70;;;7.30;1.00;;;;;;5135536;27;20537;-67
2021/11/04 10:13:07;;;;;;;58.17;2.78;;;7.30;1.00;;;;;;5135447;27;20246;-67
2021/11/04 10:15:36;;;;;;;58.20;2.67;;;7.30;1.00;;;;;;5133713;27;20884;-67
2021/11/04 10:18:24;;;;;;;58.08;2.92;;;7.30;1.00;;;;;;5135243;27;20342;-67
2021/11/04 10:20:56;;;;;;;58.15;2.75;;;7.30;1.00;;;;;;5130120;27;20223;-67
2021/11/04 10:23:24;;;;;;;58.05;2.72;;;7.20;1.00;;;;;;5135359;27;20407;-66
2021/11/04 10:26:04;;;;;;;58.07;2.80;;;7.20;1.00;;;;;;5134940;27;20203;-66
2021/11/04 10:28:32;;;;;;;58.08;2.88;;;7.20;1.00;;;;;;5135213;27;20839;-67
2021/11/04 10:30:59;;;;;;;57.88;3.20;;;7.20;1.00;;;;;;5133704;27;20231;-66
2021/11/04 10:33:29;;;;;;;58.17;2.80;;;7.20;1.00;;;;;;5134756;27;20211;-67
2021/11/04 10:36:02;;;;;;;58.03;2.65;;;7.20;1.00;;;;;;5134662;27;20298;-67
2021/11/04 10:38:37;;;;;;;58.17;2.80;;;7.10;1.00;;;;;;5135100;27;20632;-67
2021/11/04 10:41:07;;;;;;;58.03;2.72;;;7.10;1.00;;;;;;5134490;27;20800;-67
2021/11/04 10:43:35;;;;;;;58.17;2.70;;;7.10;1.00;;;;;;5135189;27;20236;-67
2021/11/04 10:46:04;;;;;;;57.97;2.70;;;7.20;1.00;;;;;;5134430;27;20743;-67
2021/11/04 10:48:31;;;;;;;58.28;2.63;;;7.20;1.00;;;;;;5135085;27;20294;-67
2021/11/04 10:50:58;;;;;;;58.33;2.90;;;7.20;1.00;;;;;;5134786;27;20458;-67
2021/11/04 10:53:26;;;;;;;58.08;2.63;;;7.10;1.00;;;;;;5134397;27;20290;-67
2021/11/04 10:56:13;;;;;;;58.17;2.80;;;7.10;1.00;;;;;;5134452;27;20294;-67
2021/11/04 10:58:42;;;;;;;57.83;2.70;;;7.10;1.00;;;;;;5134730;27;20653;-67
2021/11/04 11:01:25;;;;;;;58.08;2.70;;;7.10;1.00;;;;;;5134139;27;20220;-67
2021/11/04 11:03:54;;;;;;;58.00;2.63;;;7.00;1.00;;;;;;5132490;27;20198;-67
2021/11/04 11:06:21;;;;;;;57.97;2.60;;;7.00;1.00;;;;;;5134008;27;20208;-67
2021/11/04 11:08:48;;;;;;;58.05;2.83;;;7.00;1.00;;;;;;5134078;27;20209;-67
2021/11/04 11:11:18;;;;;;;58.15;3.00;;;7.00;1.00;;;;;;5134124;27;20265;-67
2021/11/04 11:13:47;;;;;;;58.08;2.70;;;7.00;1.00;;;;;;5134225;27;20234;-67
2021/11/04 11:16:16;;;;;;;57.97;2.60;;;7.00;1.00;;;;;;5133568;27;20212;-67
2021/11/04 11:18:43;;;;;;;58.40;3.00;;;7.10;1.00;;;;;;5134318;27;20206;-67
2021/11/04 11:21:10;;;;;;;58.05;2.70;;;7.10;1.00;;;;;;5133928;27;20223;-67
2021/11/04 11:23:37;;;;;;;57.97;2.85;;;7.20;1.00;;;;;;5134221;27;20260;-67
2021/11/04 11:26:06;;;;;;;58.08;2.70;;;7.20;1.00;;;;;;5133772;27;20290;-67
2021/11/04 11:28:35;;;;;;;58.08;2.70;;;7.20;1.00;;;;;;5133878;27;20294;-68
2021/11/04 11:31:21;;;;;;;58.28;2.70;;;7.20;1.00;;;;;;5133723;27;20235;-67
2021/11/04 11:34:11;;;;;;;58.20;2.67;;;7.30;1.00;;;;;;5133510;27;20744;-67
2021/11/04 11:36:39;;;;;;;58.17;2.95;;;7.20;1.00;;;;;;5133166;27;20257;-66
2021/11/04 11:39:14;;;;;;;58.45;3.00;;;7.30;1.00;;;;;;5133680;27;20302;-67
2021/11/04 11:42:08;;;;;;;57.97;2.60;;;7.30;1.00;;;;;;5133626;27;20263;-67
2021/11/04 11:44:37;;;;;;;58.15;2.60;;;7.30;1.00;;;;;;5133745;27;20207;-67
2021/11/04 11:47:07;;;;;;;58.00;3.00;;;7.30;1.00;;;;;;5133342;27;20201;-67
2021/11/04 11:49:35;;;;;;;58.08;2.78;;;7.30;1.00;;;;;;5133350;27;20823;-67
2021/11/04 11:52:03;;;;;;;58.40;3.38;;;7.30;1.00;;;;;;5133513;27;20710;-67
2021/11/04 11:55:07;;;;;;;57.77;2.70;;;7.30;1.00;;;;;;5133572;27;20644;-67
2021/11/04 11:57:36;;;;;;;58.28;3.00;;;7.30;1.00;;;;;;5133259;27;20539;-67
2021/11/04 12:00:06;;;;;;;57.97;2.75;;;7.20;1.00;;;;;;5133150;27;20309;-67
2021/11/04 12:02:42;;;;;;;58.10;2.78;;;7.20;1.00;;;;;;5132609;27;20202;-67
2021/11/04 12:05:34;;;;;;;57.95;2.70;;;7.20;1.00;;;;;;5133274;27;20234;-66
2021/11/04 12:08:35;;;;;;;58.17;2.85;;;7.30;1.00;;;;;;5112667;28;20207;-66
2021/11/04 12:11:04;;;;;;;57.87;2.73;;;7.30;1.00;;;;;;5112666;28;20227;-67
2021/11/04 12:13:32;;;;;;;58.70;3.10;;;7.40;1.00;;;;;;5112803;28;20759;-67
2021/11/04 12:16:13;;;;;;;58.15;2.80;;;7.40;1.00;;;;;;5111820;28;21005;-67
2021/11/04 12:18:53;;;;;;;58.83;3.40;;;7.40;1.00;;;;;;5112430;28;20209;-67
2021/11/04 12:21:26;;;;;;;58.50;3.17;;;7.30;1.00;;;;;;5112038;28;20388;-67
2021/11/04 12:23:54;;;;;;;58.07;2.60;;;7.30;1.00;;;;;;5112809;28;20441;-67
2021/11/04 12:26:32;;;;;;;57.97;2.60;;;7.30;1.00;;;;;;5111945;28;20973;-67
2021/11/04 12:28:59;;;;;;;58.20;3.30;;;7.30;1.00;;;;;;5112474;28;20525;-67
2021/11/04 12:31:28;;;;;;;57.93;2.63;;;7.20;1.00;;;;;;5112262;28;20228;-67
2021/11/04 12:33:56;;;;;;;58.10;2.70;;;7.20;1.00;;;;;;5112367;28;20879;-67
2021/11/04 12:36:38;;;;;;;57.88;2.90;;;7.20;1.00;;;;;;5111613;28;20201;-67
2021/11/04 12:39:07;;;;;;;57.97;2.77;;;7.20;1.00;;;;;;5127066;27;20291;-67
2021/11/04 12:41:34;;;;;;;57.97;2.60;;;7.30;1.00;;;;;;5132208;27;20524;-67
2021/11/04 12:44:03;;;;;;;58.00;2.80;;;7.40;1.00;;;;;;5132757;27;20631;-67
2021/11/04 12:46:31;;;;;;;58.60;3.00;;;7.50;1.00;;;;;;5132300;27;20963;-67
2021/11/04 12:49:01;;;;;;;58.10;3.00;;;7.60;1.00;;;;;;5132744;27;20211;-67
2021/11/04 12:51:43;;;;;;;58.03;2.70;;;7.70;1.00;;;;;;5132743;27;20980;-67
2021/11/04 12:54:11;;;;;;;58.10;2.90;;;7.80;1.00;;;;;;5132342;27;20216;-67
2021/11/04 12:56:40;;;;;;;58.07;3.10;;;8.00;1.00;;;;;;5132152;27;20441;-67
2021/11/04 12:59:07;;;;;;;58.00;2.80;;;8.10;1.00;;;;;;5132659;27;20518;-67
2021/11/04 13:02:03;;;;;;;57.97;2.70;;;8.10;1.00;;;;;;5132026;27;20457;-67
2021/11/04 13:04:34;;;;;;;57.87;2.80;;;8.20;1.00;;;;;;5132334;27;20502;-67